PWSweather.com
Personal Weather Stations
Station Observations
IPOMMEUS2
PommeuseFR 77515

PommeuseFR 77515

Lat: 48.805, Lon: 3.015

Elevation: 0

Station Type: Oregon Scientific WMRS200

http://meteo.glou-prods.net/

High Low Average
Temperature 75.9°F24.4°C 54.7°F12.6°C 64.2°F17.9°C
Dew Point 63.0°F17.2°C 52.3°F11.3°C 59.0°F15.0°C
Winds 1.8 mph 2.9 kmh 0.2 mph 0.3 kmh 1.0 mph SE1.6 kmh SE
Wind Gusts 6.3 mph10.1 kmh -- 1.0 mph1.6 kmh
Humidity 96% 58% 84%
Pressure 30.06 in1017.9 mb 29.94 in1013.9 mb -
Precipitation 0.00 in0.0 mm - -
Hour Temp Dew Point Humidity Winds Wind Gusts Pressure Precip Precip Rate Daily Precip Total
12:05 AM 57.2°F14.0°C 53.1°F11.7°C 86% - E16091.8 kmh E -- 29.94 in1013.9 mb 0.00 in0.0 mm 0.00 in/hr0.0 mm/hr 0.00 in0.0 mm
12:15 AM 57.0°F13.9°C 53.2°F11.8°C 87% - E16091.8 kmh E -- 29.99 in1015.6 mb 0.00 in0.0 mm 0.00 in/hr0.0 mm/hr 0.00 in0.0 mm
12:25 AM 56.8°F13.8°C 53.2°F11.8°C 88% - E16091.8 kmh E -- 30.00 in1015.9 mb 0.00 in0.0 mm 0.00 in/hr0.0 mm/hr 0.00 in0.0 mm
12:35 AM 56.5°F13.6°C 52.9°F11.6°C 88% - E16091.8 kmh E -- 30.00 in1015.9 mb 0.00 in0.0 mm 0.00 in/hr0.0 mm/hr 0.00 in0.0 mm
12:45 AM 56.3°F13.5°C 52.9°F11.6°C 88% - E16091.8 kmh E -- 29.96 in1014.6 mb 0.00 in0.0 mm 0.00 in/hr0.0 mm/hr 0.00 in0.0 mm
12:55 AM 56.1°F13.4°C 52.9°F11.6°C 89% - E16091.8 kmh E 0.9 mph1.4 kmh 29.96 in1014.6 mb 0.00 in0.0 mm 0.00 in/hr0.0 mm/hr 0.00 in0.0 mm
01:05 AM 55.9°F13.3°C 52.7°F11.5°C 89% - E16091.8 kmh E -- 29.97 in1014.9 mb 0.00 in0.0 mm 0.00 in/hr0.0 mm/hr 0.00 in0.0 mm
01:15 AM 55.8°F13.2°C 53.2°F11.8°C 91% - E16091.8 kmh E -- 30.00 in1015.9 mb 0.00 in0.0 mm 0.00 in/hr0.0 mm/hr 0.00 in0.0 mm
01:25 AM 55.4°F13.0°C 52.9°F11.6°C 91% - E16091.8 kmh E -- 29.99 in1015.6 mb 0.00 in0.0 mm 0.00 in/hr0.0 mm/hr 0.00 in0.0 mm
01:35 AM 55.0°F12.8°C 52.5°F11.4°C 91% - E16091.8 kmh E -- 29.97 in1014.9 mb 0.00 in0.0 mm 0.00 in/hr0.0 mm/hr 0.00 in0.0 mm
01:45 AM 54.9°F12.7°C 52.3°F11.3°C 91% - E16091.8 kmh E -- 29.97 in1014.9 mb 0.00 in0.0 mm 0.00 in/hr0.0 mm/hr 0.00 in0.0 mm
01:55 AM 54.7°F12.6°C 52.3°F11.3°C 92% - E16091.8 kmh E -- 29.97 in1014.9 mb 0.00 in0.0 mm 0.00 in/hr0.0 mm/hr 0.00 in0.0 mm
02:05 AM 54.7°F12.6°C 52.3°F11.3°C 92% - E16091.8 kmh E -- 29.97 in1014.9 mb 0.00 in0.0 mm 0.00 in/hr0.0 mm/hr 0.00 in0.0 mm
02:15 AM 54.9°F12.7°C 52.5°F11.4°C 92% - E16091.8 kmh E -- 29.97 in1014.9 mb 0.00 in0.0 mm 0.00 in/hr0.0 mm/hr 0.00 in0.0 mm
02:25 AM 55.0°F12.8°C 53.1°F11.7°C 93% - E16091.8 kmh E -- 29.97 in1014.9 mb 0.00 in0.0 mm 0.00 in/hr0.0 mm/hr 0.00 in0.0 mm
02:35 AM 55.2°F12.9°C 53.2°F11.8°C 93% - E16091.8 kmh E -- 29.97 in1014.9 mb 0.00 in0.0 mm 0.00 in/hr0.0 mm/hr 0.00 in0.0 mm
02:45 AM 55.4°F13.0°C 53.4°F11.9°C 93% - E16091.8 kmh E -- 29.97 in1014.9 mb 0.00 in0.0 mm 0.00 in/hr0.0 mm/hr 0.00 in0.0 mm
02:55 AM 55.4°F13.0°C 53.4°F11.9°C 93% - E16091.8 kmh E -- 29.97 in1014.9 mb 0.00 in0.0 mm 0.00 in/hr0.0 mm/hr 0.00 in0.0 mm
03:05 AM 55.6°F13.1°C 53.6°F12.0°C 93% - E16091.8 kmh E -- 29.97 in1014.9 mb 0.00 in0.0 mm 0.00 in/hr0.0 mm/hr 0.00 in0.0 mm
03:15 AM 55.8°F13.2°C 53.8°F12.1°C 93% - E16091.8 kmh E -- 29.97 in1014.9 mb 0.00 in0.0 mm 0.00 in/hr0.0 mm/hr 0.00 in0.0 mm
03:25 AM 55.9°F13.3°C 54.3°F12.4°C 94% - E16091.8 kmh E -- 29.97 in1014.9 mb 0.00 in0.0 mm 0.00 in/hr0.0 mm/hr 0.00 in0.0 mm
03:35 AM 55.9°F13.3°C 54.3°F12.4°C 94% - E16091.8 kmh E -- 29.97 in1014.9 mb 0.00 in0.0 mm 0.00 in/hr0.0 mm/hr 0.00 in0.0 mm
03:45 AM 55.9°F13.3°C 54.3°F12.4°C 94% - E16091.8 kmh E -- 29.97 in1014.9 mb 0.00 in0.0 mm 0.00 in/hr0.0 mm/hr 0.00 in0.0 mm
03:55 AM 56.1°F13.4°C 54.5°F12.5°C 94% - E16091.8 kmh E -- 29.97 in1014.9 mb 0.00 in0.0 mm 0.00 in/hr0.0 mm/hr 0.00 in0.0 mm
04:05 AM 56.1°F13.4°C 54.5°F12.5°C 94% - E16091.8 kmh E -- 29.97 in1014.9 mb 0.00 in0.0 mm 0.00 in/hr0.0 mm/hr 0.00 in0.0 mm
04:15 AM 56.1°F13.4°C 54.5°F12.5°C 94% - E16091.8 kmh E -- 29.97 in1014.9 mb 0.00 in0.0 mm 0.00 in/hr0.0 mm/hr 0.00 in0.0 mm
04:25 AM 56.3°F13.5°C 54.7°F12.6°C 94% - E16091.8 kmh E -- 29.97 in1014.9 mb 0.00 in0.0 mm 0.00 in/hr0.0 mm/hr 0.00 in0.0 mm
04:35 AM 56.3°F13.5°C 54.9°F12.7°C 95% - E16091.8 kmh E -- 29.97 in1014.9 mb 0.00 in0.0 mm 0.00 in/hr0.0 mm/hr 0.00 in0.0 mm
04:45 AM 56.3°F13.5°C 54.9°F12.7°C 95% - E16091.8 kmh E -- 29.97 in1014.9 mb 0.00 in0.0 mm 0.00 in/hr0.0 mm/hr 0.00 in0.0 mm
04:55 AM 56.5°F13.6°C 55.0°F12.8°C 95% - E16091.8 kmh E -- 29.97 in1014.9 mb 0.00 in0.0 mm 0.00 in/hr0.0 mm/hr 0.00 in0.0 mm
05:05 AM 56.5°F13.6°C 55.0°F12.8°C 95% - E16091.8 kmh E -- 29.97 in1014.9 mb 0.00 in0.0 mm 0.00 in/hr0.0 mm/hr 0.00 in0.0 mm
05:15 AM 56.5°F13.6°C 55.0°F12.8°C 95% - E16091.8 kmh E -- 29.97 in1014.9 mb 0.00 in0.0 mm 0.00 in/hr0.0 mm/hr 0.00 in0.0 mm
05:25 AM 56.7°F13.7°C 55.2°F12.9°C 95% - E16091.8 kmh E 1.3 mph2.1 kmh 29.97 in1014.9 mb 0.00 in0.0 mm 0.00 in/hr0.0 mm/hr 0.00 in0.0 mm
05:35 AM 56.8°F13.8°C 55.4°F13.0°C 95% - E16091.8 kmh E 1.1 mph1.8 kmh 29.97 in1014.9 mb 0.00 in0.0 mm 0.00 in/hr0.0 mm/hr 0.00 in0.0 mm
05:45 AM 56.8°F13.8°C 55.4°F13.0°C 95% - E16091.8 kmh E -- 29.95 in1014.2 mb 0.00 in0.0 mm 0.00 in/hr0.0 mm/hr 0.00 in0.0 mm
05:55 AM 57.0°F13.9°C 55.9°F13.3°C 96% - E16091.8 kmh E -- 29.94 in1013.9 mb 0.00 in0.0 mm 0.00 in/hr0.0 mm/hr 0.00 in0.0 mm
06:05 AM 57.2°F14.0°C 56.1°F13.4°C 96% - E16091.8 kmh E -- 29.94 in1013.9 mb 0.00 in0.0 mm 0.00 in/hr0.0 mm/hr 0.00 in0.0 mm
06:15 AM 57.4°F14.1°C 55.9°F13.3°C 95% - E16091.8 kmh E -- 29.94 in1013.9 mb 0.00 in0.0 mm 0.00 in/hr0.0 mm/hr 0.00 in0.0 mm
06:25 AM 57.7°F14.3°C 56.3°F13.5°C 95% - E16091.8 kmh E -- 29.94 in1013.9 mb 0.00 in0.0 mm 0.00 in/hr0.0 mm/hr 0.00 in0.0 mm
06:35 AM 58.1°F14.5°C 57.0°F13.9°C 96% - E16091.8 kmh E -- 29.94 in1013.9 mb 0.00 in0.0 mm 0.00 in/hr0.0 mm/hr 0.00 in0.0 mm
06:45 AM 58.5°F14.7°C 57.4°F14.1°C 96% - E16091.8 kmh E -- 29.97 in1014.9 mb 0.00 in0.0 mm 0.00 in/hr0.0 mm/hr 0.00 in0.0 mm
06:55 AM 58.6°F14.8°C 57.2°F14.0°C 95% - E16091.8 kmh E -- 29.96 in1014.6 mb 0.00 in0.0 mm 0.00 in/hr0.0 mm/hr 0.00 in0.0 mm
07:05 AM 58.8°F14.9°C 57.4°F14.1°C 95% - E16091.8 kmh E -- 29.94 in1013.9 mb 0.00 in0.0 mm 0.00 in/hr0.0 mm/hr 0.00 in0.0 mm
07:15 AM 59.0°F15.0°C 57.6°F14.2°C 95% - E16091.8 kmh E 0.9 mph1.4 kmh 29.94 in1013.9 mb 0.00 in0.0 mm 0.00 in/hr0.0 mm/hr 0.00 in0.0 mm
07:25 AM 59.2°F15.1°C 57.7°F14.3°C 95% - S16091.8 kmh S 1.3 mph2.1 kmh 29.96 in1014.6 mb 0.00 in0.0 mm 0.00 in/hr0.0 mm/hr 0.00 in0.0 mm
07:35 AM 59.4°F15.2°C 57.9°F14.4°C 95% - E16091.8 kmh E 1.6 mph2.6 kmh 29.97 in1014.9 mb 0.00 in0.0 mm 0.00 in/hr0.0 mm/hr 0.00 in0.0 mm
07:45 AM 59.5°F15.3°C 57.7°F14.3°C 94% 0.2 mph ESE0.3 kmh ESE 1.6 mph2.6 kmh 29.97 in1014.9 mb 0.00 in0.0 mm 0.00 in/hr0.0 mm/hr 0.00 in0.0 mm
07:55 AM 59.9°F15.5°C 58.1°F14.5°C 94% - E16091.8 kmh E 1.1 mph1.8 kmh 29.97 in1014.9 mb 0.00 in0.0 mm 0.00 in/hr0.0 mm/hr 0.00 in0.0 mm
08:05 AM 60.6°F15.9°C 58.6°F14.8°C 93% - E16091.8 kmh E 1.6 mph2.6 kmh 29.97 in1014.9 mb 0.00 in0.0 mm 0.00 in/hr0.0 mm/hr 0.00 in0.0 mm
08:15 AM 61.2°F16.2°C 58.8°F14.9°C 92% 0.2 mph S0.3 kmh S 2.0 mph3.2 kmh 29.97 in1014.9 mb 0.00 in0.0 mm 0.00 in/hr0.0 mm/hr 0.00 in0.0 mm
08:25 AM 61.3°F16.3°C 58.6°F14.8°C 91% - E16091.8 kmh E -- 29.97 in1014.9 mb 0.00 in0.0 mm 0.00 in/hr0.0 mm/hr 0.00 in0.0 mm
08:35 AM 61.7°F16.5°C 59.0°F15.0°C 91% - E16091.8 kmh E -- 29.97 in1014.9 mb 0.00 in0.0 mm 0.00 in/hr0.0 mm/hr 0.00 in0.0 mm
08:45 AM 62.4°F16.9°C 59.4°F15.2°C 90% - E16091.8 kmh E 1.3 mph2.1 kmh 29.97 in1014.9 mb 0.00 in0.0 mm 0.00 in/hr0.0 mm/hr 0.00 in0.0 mm
08:55 AM 63.0°F17.2°C 59.4°F15.2°C 88% 0.4 mph SE0.6 kmh SE 2.9 mph4.7 kmh 29.97 in1014.9 mb 0.00 in0.0 mm 0.00 in/hr0.0 mm/hr 0.00 in0.0 mm
09:05 AM 63.0°F17.2°C 59.0°F15.0°C 87% 0.2 mph SSE0.3 kmh SSE 2.7 mph4.3 kmh 29.97 in1014.9 mb 0.00 in0.0 mm 0.00 in/hr0.0 mm/hr 0.00 in0.0 mm
09:15 AM 63.3°F17.4°C 59.7°F15.4°C 88% - SSW16091.8 kmh SSW 1.6 mph2.6 kmh 29.97 in1014.9 mb 0.00 in0.0 mm 0.00 in/hr0.0 mm/hr 0.00 in0.0 mm
09:25 AM 64.0°F17.8°C 60.1°F15.6°C 87% 0.2 mph ESE0.3 kmh ESE 2.2 mph3.5 kmh 29.97 in1014.9 mb 0.00 in0.0 mm 0.00 in/hr0.0 mm/hr 0.00 in0.0 mm
09:35 AM 64.4°F18.0°C 59.7°F15.4°C 85% 0.7 mph SSE1.1 kmh SSE 3.1 mph5.0 kmh 29.97 in1014.9 mb 0.00 in0.0 mm 0.00 in/hr0.0 mm/hr 0.00 in0.0 mm
09:45 AM 64.8°F18.2°C 60.1°F15.6°C 85% 1.3 mph SE2.1 kmh SE 4.9 mph7.9 kmh 29.97 in1014.9 mb 0.00 in0.0 mm 0.00 in/hr0.0 mm/hr 0.00 in0.0 mm
09:55 AM 64.9°F18.3°C 59.7°F15.4°C 83% 1.6 mph SSE2.6 kmh SSE 6.3 mph10.1 kmh 29.97 in1014.9 mb 0.00 in0.0 mm 0.00 in/hr0.0 mm/hr 0.00 in0.0 mm
10:05 AM 64.8°F18.2°C 59.5°F15.3°C 83% 0.4 mph SE0.6 kmh SE 2.2 mph3.5 kmh 29.97 in1014.9 mb 0.00 in0.0 mm 0.00 in/hr0.0 mm/hr 0.00 in0.0 mm
10:15 AM 64.8°F18.2°C 59.9°F15.5°C 84% 0.9 mph ESE1.4 kmh ESE 4.9 mph7.9 kmh 29.97 in1014.9 mb 0.00 in0.0 mm 0.00 in/hr0.0 mm/hr 0.00 in0.0 mm
10:25 AM 64.9°F18.3°C 59.7°F15.4°C 83% 1.6 mph SE2.6 kmh SE 4.0 mph6.4 kmh 29.97 in1014.9 mb 0.00 in0.0 mm 0.00 in/hr0.0 mm/hr 0.00 in0.0 mm
10:35 AM 64.9°F18.3°C 59.7°F15.4°C 83% 1.3 mph SE2.1 kmh SE 3.6 mph5.8 kmh 29.97 in1014.9 mb 0.00 in0.0 mm 0.00 in/hr0.0 mm/hr 0.00 in0.0 mm
10:45 AM 64.8°F18.2°C 59.9°F15.5°C 84% 0.9 mph SE1.4 kmh SE 2.9 mph4.7 kmh 29.97 in1014.9 mb 0.00 in0.0 mm 0.00 in/hr0.0 mm/hr 0.00 in0.0 mm
10:55 AM 64.4°F18.0°C 59.7°F15.4°C 85% 0.7 mph SSE1.1 kmh SSE 2.7 mph4.3 kmh 29.98 in1015.2 mb 0.00 in0.0 mm 0.00 in/hr0.0 mm/hr 0.00 in0.0 mm
11:05 AM 64.6°F18.1°C 60.3°F15.7°C 86% - E16091.8 kmh E 1.1 mph1.8 kmh 30.00 in1015.9 mb 0.00 in0.0 mm 0.00 in/hr0.0 mm/hr 0.00 in0.0 mm
11:15 AM 64.8°F18.2°C 60.8°F16.0°C 87% 0.7 mph SE1.1 kmh SE 2.9 mph4.7 kmh 30.00 in1015.9 mb 0.00 in0.0 mm 0.00 in/hr0.0 mm/hr 0.00 in0.0 mm
11:25 AM 65.1°F18.4°C 61.2°F16.2°C 87% 0.9 mph S1.4 kmh S 2.5 mph4.0 kmh 30.00 in1015.9 mb 0.00 in0.0 mm 0.00 in/hr0.0 mm/hr 0.00 in0.0 mm
11:35 AM 65.1°F18.4°C 61.2°F16.2°C 87% 1.3 mph SE2.1 kmh SE 4.7 mph7.6 kmh 30.00 in1015.9 mb 0.00 in0.0 mm 0.00 in/hr0.0 mm/hr 0.00 in0.0 mm
11:45 AM 64.9°F18.3°C 61.0°F16.1°C 87% 0.4 mph SSE0.6 kmh SSE 4.3 mph6.9 kmh 30.00 in1015.9 mb 0.00 in0.0 mm 0.00 in/hr0.0 mm/hr 0.00 in0.0 mm
11:55 AM 65.5°F18.6°C 61.9°F16.6°C 88% 0.2 mph S0.3 kmh S 3.6 mph5.8 kmh 30.00 in1015.9 mb 0.00 in0.0 mm 0.00 in/hr0.0 mm/hr 0.00 in0.0 mm
12:05 PM 65.1°F18.4°C 61.2°F16.2°C 87% 0.9 mph SE1.4 kmh SE 2.9 mph4.7 kmh 30.00 in1015.9 mb 0.00 in0.0 mm 0.00 in/hr0.0 mm/hr 0.00 in0.0 mm
12:15 PM 65.3°F18.5°C 61.7°F16.5°C 88% 0.9 mph SE1.4 kmh SE 4.9 mph7.9 kmh 30.00 in1015.9 mb 0.00 in0.0 mm 0.00 in/hr0.0 mm/hr 0.00 in0.0 mm
12:25 PM 65.3°F18.5°C 61.7°F16.5°C 88% 1.8 mph SSE2.9 kmh SSE 5.8 mph9.3 kmh 30.01 in1016.3 mb 0.00 in0.0 mm 0.00 in/hr0.0 mm/hr 0.00 in0.0 mm
12:35 PM 65.8°F18.8°C 62.4°F16.9°C 89% 0.9 mph SSE1.4 kmh SSE 3.8 mph6.1 kmh 30.03 in1016.9 mb 0.00 in0.0 mm 0.00 in/hr0.0 mm/hr 0.00 in0.0 mm
12:45 PM 66.4°F19.1°C 62.4°F16.9°C 87% 1.1 mph SW1.8 kmh SW 2.5 mph4.0 kmh 30.01 in1016.3 mb 0.00 in0.0 mm 0.00 in/hr0.0 mm/hr 0.00 in0.0 mm
12:55 PM 66.7°F19.3°C 62.1°F16.7°C 85% 0.9 mph SSE1.4 kmh SSE 3.1 mph5.0 kmh 30.00 in1015.9 mb 0.00 in0.0 mm 0.00 in/hr0.0 mm/hr 0.00 in0.0 mm
01:05 PM 67.5°F19.7°C 62.1°F16.7°C 83% 1.1 mph S1.8 kmh S 3.6 mph5.8 kmh 30.00 in1015.9 mb 0.00 in0.0 mm 0.00 in/hr0.0 mm/hr 0.00 in0.0 mm
01:15 PM 67.3°F19.6°C 61.5°F16.4°C 82% 0.9 mph S1.4 kmh S 3.1 mph5.0 kmh 30.00 in1015.9 mb 0.00 in0.0 mm 0.00 in/hr0.0 mm/hr 0.00 in0.0 mm
01:25 PM 67.6°F19.8°C 61.9°F16.6°C 82% - E16091.8 kmh E -- 30.01 in1016.3 mb 0.00 in0.0 mm 0.00 in/hr0.0 mm/hr 0.00 in0.0 mm
01:35 PM 67.5°F19.7°C 61.3°F16.3°C 81% 0.2 mph SSE0.3 kmh SSE 2.2 mph3.5 kmh 30.03 in1016.9 mb 0.00 in0.0 mm 0.00 in/hr0.0 mm/hr 0.00 in0.0 mm
01:45 PM 68.4°F20.2°C 62.2°F16.8°C 81% 0.2 mph ESE0.3 kmh ESE 2.9 mph4.7 kmh 30.03 in1016.9 mb 0.00 in0.0 mm 0.00 in/hr0.0 mm/hr 0.00 in0.0 mm
01:55 PM 70.0°F21.1°C 62.4°F16.9°C 77% 0.7 mph E1.1 kmh E 3.4 mph5.5 kmh 30.03 in1016.9 mb 0.00 in0.0 mm 0.00 in/hr0.0 mm/hr 0.00 in0.0 mm
02:05 PM 71.4°F21.9°C 62.8°F17.1°C 74% 1.1 mph SW1.8 kmh SW 3.6 mph5.8 kmh 30.03 in1016.9 mb 0.00 in0.0 mm 0.00 in/hr0.0 mm/hr 0.00 in0.0 mm
02:15 PM 73.4°F23.0°C 62.6°F17.0°C 69% 0.9 mph N1.4 kmh N 3.8 mph6.1 kmh 30.01 in1016.3 mb 0.00 in0.0 mm 0.00 in/hr0.0 mm/hr 0.00 in0.0 mm
02:25 PM 73.2°F22.9°C 62.1°F16.7°C 68% 0.7 mph NW1.1 kmh NW 2.9 mph4.7 kmh 30.00 in1015.9 mb 0.00 in0.0 mm 0.00 in/hr0.0 mm/hr 0.00 in0.0 mm
02:35 PM 73.2°F22.9°C 61.5°F16.4°C 67% 1.1 mph W1.8 kmh W 3.1 mph5.0 kmh 30.00 in1015.9 mb 0.00 in0.0 mm 0.00 in/hr0.0 mm/hr 0.00 in0.0 mm
02:45 PM 73.8°F23.2°C 61.3°F16.3°C 65% 0.4 mph SW0.6 kmh SW 2.7 mph4.3 kmh 30.03 in1016.9 mb 0.00 in0.0 mm 0.00 in/hr0.0 mm/hr 0.00 in0.0 mm
02:55 PM 74.5°F23.6°C 61.5°F16.4°C 64% 0.7 mph WSW1.1 kmh WSW 3.6 mph5.8 kmh 30.03 in1016.9 mb 0.00 in0.0 mm 0.00 in/hr0.0 mm/hr 0.00 in0.0 mm
03:05 PM 73.9°F23.3°C 60.1°F15.6°C 62% 0.7 mph WSW1.1 kmh WSW 2.9 mph4.7 kmh 30.03 in1016.9 mb 0.00 in0.0 mm 0.00 in/hr0.0 mm/hr 0.00 in0.0 mm
03:15 PM 72.9°F22.7°C 59.5°F15.3°C 63% 1.6 mph W2.6 kmh W 3.1 mph5.0 kmh 30.03 in1016.9 mb 0.00 in0.0 mm 0.00 in/hr0.0 mm/hr 0.00 in0.0 mm
03:25 PM 72.5°F22.5°C 59.5°F15.3°C 64% 1.3 mph NW2.1 kmh NW 3.6 mph5.8 kmh 30.03 in1016.9 mb 0.00 in0.0 mm 0.00 in/hr0.0 mm/hr 0.00 in0.0 mm
03:35 PM 72.3°F22.4°C 59.9°F15.5°C 65% 1.6 mph W2.6 kmh W 3.8 mph6.1 kmh 30.03 in1016.9 mb 0.00 in0.0 mm 0.00 in/hr0.0 mm/hr 0.00 in0.0 mm
03:45 PM 73.9°F23.3°C 61.0°F16.1°C 64% 1.6 mph WSW2.6 kmh WSW 4.3 mph6.9 kmh 30.03 in1016.9 mb 0.00 in0.0 mm 0.00 in/hr0.0 mm/hr 0.00 in0.0 mm
03:55 PM 74.8°F23.8°C 60.4°F15.8°C 61% 1.1 mph SW1.8 kmh SW 4.5 mph7.2 kmh 30.03 in1016.9 mb 0.00 in0.0 mm 0.00 in/hr0.0 mm/hr 0.00 in0.0 mm
04:05 PM 75.9°F24.4°C 61.0°F16.1°C 60% 0.9 mph NW1.4 kmh NW 3.8 mph6.1 kmh 30.03 in1016.9 mb 0.00 in0.0 mm 0.00 in/hr0.0 mm/hr 0.00 in0.0 mm
04:15 PM 75.6°F24.2°C 59.7°F15.4°C 58% 1.1 mph W1.8 kmh W 3.8 mph6.1 kmh 30.01 in1016.3 mb 0.00 in0.0 mm 0.00 in/hr0.0 mm/hr 0.00 in0.0 mm
04:25 PM 75.2°F24.0°C 59.4°F15.2°C 58% 1.8 mph NW2.9 kmh NW 4.3 mph6.9 kmh 30.00 in1015.9 mb 0.00 in0.0 mm 0.00 in/hr0.0 mm/hr 0.00 in0.0 mm
04:35 PM 74.5°F23.6°C 59.2°F15.1°C 59% 1.3 mph W2.1 kmh W 4.3 mph6.9 kmh 30.00 in1015.9 mb 0.00 in0.0 mm 0.00 in/hr0.0 mm/hr 0.00 in0.0 mm
04:45 PM 74.7°F23.7°C 59.9°F15.5°C 60% 1.3 mph N2.1 kmh N 4.0 mph6.4 kmh 30.00 in1015.9 mb 0.00 in0.0 mm 0.00 in/hr0.0 mm/hr 0.00 in0.0 mm
04:55 PM 73.8°F23.2°C 59.5°F15.3°C 61% 0.9 mph N1.4 kmh N 2.7 mph4.3 kmh 30.00 in1015.9 mb 0.00 in0.0 mm 0.00 in/hr0.0 mm/hr 0.00 in0.0 mm
05:05 PM 73.0°F22.8°C 59.7°F15.4°C 63% 1.3 mph NNW2.1 kmh NNW 2.9 mph4.7 kmh 30.00 in1015.9 mb 0.00 in0.0 mm 0.00 in/hr0.0 mm/hr 0.00 in0.0 mm
05:15 PM 73.2°F22.9°C 60.3°F15.7°C 64% 0.7 mph NNW1.1 kmh NNW 3.1 mph5.0 kmh 30.00 in1015.9 mb 0.00 in0.0 mm 0.00 in/hr0.0 mm/hr 0.00 in0.0 mm
05:25 PM 73.2°F22.9°C 60.8°F16.0°C 65% 0.7 mph WSW1.1 kmh WSW 2.7 mph4.3 kmh 30.00 in1015.9 mb 0.00 in0.0 mm 0.00 in/hr0.0 mm/hr 0.00 in0.0 mm
05:35 PM 72.9°F22.7°C 60.4°F15.8°C 65% 0.4 mph N0.6 kmh N 2.0 mph3.2 kmh 30.00 in1015.9 mb 0.00 in0.0 mm 0.00 in/hr0.0 mm/hr 0.00 in0.0 mm
05:45 PM 72.0°F22.2°C 59.5°F15.3°C 65% 1.3 mph NW2.1 kmh NW 4.0 mph6.4 kmh 30.00 in1015.9 mb 0.00 in0.0 mm 0.00 in/hr0.0 mm/hr 0.00 in0.0 mm
05:55 PM 71.2°F21.8°C 60.1°F15.6°C 68% 1.1 mph NNW1.8 kmh NNW 4.0 mph6.4 kmh 30.00 in1015.9 mb 0.00 in0.0 mm 0.00 in/hr0.0 mm/hr 0.00 in0.0 mm
06:05 PM 70.9°F21.6°C 60.3°F15.7°C 69% 1.1 mph NW1.8 kmh NW 2.7 mph4.3 kmh 30.00 in1015.9 mb 0.00 in0.0 mm 0.00 in/hr0.0 mm/hr 0.00 in0.0 mm
06:15 PM 70.9°F21.6°C 60.6°F15.9°C 70% 0.4 mph NW0.6 kmh NW 2.2 mph3.5 kmh 30.00 in1015.9 mb 0.00 in0.0 mm 0.00 in/hr0.0 mm/hr 0.00 in0.0 mm
06:25 PM 70.5°F21.4°C 60.6°F15.9°C 71% - W16091.8 kmh W 1.6 mph2.6 kmh 30.00 in1015.9 mb 0.00 in0.0 mm 0.00 in/hr0.0 mm/hr 0.00 in0.0 mm
06:35 PM 70.2°F21.2°C 60.3°F15.7°C 71% - W16091.8 kmh W 1.3 mph2.1 kmh 30.00 in1015.9 mb 0.00 in0.0 mm 0.00 in/hr0.0 mm/hr 0.00 in0.0 mm
06:45 PM 70.2°F21.2°C 60.6°F15.9°C 72% - E16091.8 kmh E -- 30.00 in1015.9 mb 0.00 in0.0 mm 0.00 in/hr0.0 mm/hr 0.00 in0.0 mm
06:55 PM 70.0°F21.1°C 61.7°F16.5°C 75% - E16091.8 kmh E -- 30.00 in1015.9 mb 0.00 in0.0 mm 0.00 in/hr0.0 mm/hr 0.00 in0.0 mm
07:05 PM 70.3°F21.3°C 62.1°F16.7°C 75% 0.7 mph NW1.1 kmh NW 2.5 mph4.0 kmh 30.00 in1015.9 mb 0.00 in0.0 mm 0.00 in/hr0.0 mm/hr 0.00 in0.0 mm
07:15 PM 70.3°F21.3°C 61.7°F16.5°C 74% 0.2 mph NNW0.3 kmh NNW 2.0 mph3.2 kmh 30.03 in1016.9 mb 0.00 in0.0 mm 0.00 in/hr0.0 mm/hr 0.00 in0.0 mm
07:25 PM 70.2°F21.2°C 61.5°F16.4°C 74% - N16091.8 kmh N 1.3 mph2.1 kmh 30.03 in1016.9 mb 0.00 in0.0 mm 0.00 in/hr0.0 mm/hr 0.00 in0.0 mm
07:35 PM 70.0°F21.1°C 62.1°F16.7°C 76% - E16091.8 kmh E -- 30.03 in1016.9 mb 0.00 in0.0 mm 0.00 in/hr0.0 mm/hr 0.00 in0.0 mm
07:45 PM 69.4°F20.8°C 62.2°F16.8°C 78% - E16091.8 kmh E -- 30.03 in1016.9 mb 0.00 in0.0 mm 0.00 in/hr0.0 mm/hr 0.00 in0.0 mm
07:55 PM 69.3°F20.7°C 62.4°F16.9°C 79% - E16091.8 kmh E -- 30.03 in1016.9 mb 0.00 in0.0 mm 0.00 in/hr0.0 mm/hr 0.00 in0.0 mm
08:05 PM 68.9°F20.5°C 62.4°F16.9°C 80% - E16091.8 kmh E -- 30.03 in1016.9 mb 0.00 in0.0 mm 0.00 in/hr0.0 mm/hr 0.00 in0.0 mm
08:15 PM 68.5°F20.3°C 62.8°F17.1°C 82% - E16091.8 kmh E -- 30.03 in1016.9 mb 0.00 in0.0 mm 0.00 in/hr0.0 mm/hr 0.00 in0.0 mm
08:25 PM 68.4°F20.2°C 62.6°F17.0°C 82% - E16091.8 kmh E -- 30.03 in1016.9 mb 0.00 in0.0 mm 0.00 in/hr0.0 mm/hr 0.00 in0.0 mm
08:35 PM 68.0°F20.0°C 62.6°F17.0°C 83% - E16091.8 kmh E -- 30.03 in1016.9 mb 0.00 in0.0 mm 0.00 in/hr0.0 mm/hr 0.00 in0.0 mm
08:45 PM 67.6°F19.8°C 63.0°F17.2°C 85% - E16091.8 kmh E -- 30.03 in1016.9 mb 0.00 in0.0 mm 0.00 in/hr0.0 mm/hr 0.00 in0.0 mm
08:55 PM 67.3°F19.6°C 63.0°F17.2°C 86% - E16091.8 kmh E -- 30.03 in1016.9 mb 0.00 in0.0 mm 0.00 in/hr0.0 mm/hr 0.00 in0.0 mm
09:05 PM 66.9°F19.4°C 63.0°F17.2°C 87% - E16091.8 kmh E -- 30.03 in1016.9 mb 0.00 in0.0 mm 0.00 in/hr0.0 mm/hr 0.00 in0.0 mm
09:15 PM 66.6°F19.2°C 62.6°F17.0°C 87% - E16091.8 kmh E -- 30.03 in1016.9 mb 0.00 in0.0 mm 0.00 in/hr0.0 mm/hr 0.00 in0.0 mm
09:25 PM 66.4°F19.1°C 62.8°F17.1°C 88% - E16091.8 kmh E -- 30.03 in1016.9 mb 0.00 in0.0 mm 0.00 in/hr0.0 mm/hr 0.00 in0.0 mm
09:35 PM 66.2°F19.0°C 62.8°F17.1°C 89% - E16091.8 kmh E -- 30.03 in1016.9 mb 0.00 in0.0 mm 0.00 in/hr0.0 mm/hr 0.00 in0.0 mm
09:45 PM 66.0°F18.9°C 63.0°F17.2°C 90% - E16091.8 kmh E -- 30.03 in1016.9 mb 0.00 in0.0 mm 0.00 in/hr0.0 mm/hr 0.00 in0.0 mm
09:55 PM 65.8°F18.8°C 62.8°F17.1°C 90% - E16091.8 kmh E -- 30.03 in1016.9 mb 0.00 in0.0 mm 0.00 in/hr0.0 mm/hr 0.00 in0.0 mm
10:05 PM 65.7°F18.7°C 62.6°F17.0°C 90% - E16091.8 kmh E -- 30.03 in1016.9 mb 0.00 in0.0 mm 0.00 in/hr0.0 mm/hr 0.00 in0.0 mm
10:15 PM 65.7°F18.7°C 63.0°F17.2°C 91% - E16091.8 kmh E -- 30.03 in1016.9 mb 0.00 in0.0 mm 0.00 in/hr0.0 mm/hr 0.00 in0.0 mm
10:26 PM 65.5°F18.6°C 62.8°F17.1°C 91% - E16091.8 kmh E -- 30.03 in1016.9 mb 0.00 in0.0 mm 0.00 in/hr0.0 mm/hr 0.00 in0.0 mm
10:36 PM 65.1°F18.4°C 62.8°F17.1°C 92% - E16091.8 kmh E -- 30.03 in1016.9 mb 0.00 in0.0 mm 0.00 in/hr0.0 mm/hr 0.00 in0.0 mm
10:46 PM 64.9°F18.3°C 62.6°F17.0°C 92% - E16091.8 kmh E -- 30.06 in1017.9 mb 0.00 in0.0 mm 0.00 in/hr0.0 mm/hr 0.00 in0.0 mm
10:56 PM 64.8°F18.2°C 62.4°F16.9°C 92% - E16091.8 kmh E -- 30.05 in1017.6 mb 0.00 in0.0 mm 0.00 in/hr0.0 mm/hr 0.00 in0.0 mm
11:06 PM 64.6°F18.1°C 62.2°F16.8°C 92% - E16091.8 kmh E -- 30.03 in1016.9 mb 0.00 in0.0 mm 0.00 in/hr0.0 mm/hr 0.00 in0.0 mm
11:16 PM 64.2°F17.9°C 62.2°F16.8°C 93% - E16091.8 kmh E -- 30.03 in1016.9 mb 0.00 in0.0 mm 0.00 in/hr0.0 mm/hr 0.00 in0.0 mm
11:26 PM 63.9°F17.7°C 61.9°F16.6°C 93% - E16091.8 kmh E -- 30.03 in1016.9 mb 0.00 in0.0 mm 0.00 in/hr0.0 mm/hr 0.00 in0.0 mm
11:36 PM 63.7°F17.6°C 61.7°F16.5°C 93% - E16091.8 kmh E -- 30.03 in1016.9 mb 0.00 in0.0 mm 0.00 in/hr0.0 mm/hr 0.00 in0.0 mm
11:46 PM 63.5°F17.5°C 61.7°F16.5°C 94% - E16091.8 kmh E -- 30.03 in1016.9 mb 0.00 in0.0 mm 0.00 in/hr0.0 mm/hr 0.00 in0.0 mm
11:56 PM 63.1°F17.3°C 61.3°F16.3°C 94% - E16091.8 kmh E -- 30.05 in1017.6 mb 0.00 in0.0 mm 0.00 in/hr0.0 mm/hr 0.00 in0.0 mm